Time;durP1;ratioP1;P1;durP2;ratioP2;P2;SDS_P1;SDS_P2;PMS_P1;PMS_P2;Temp;Humidity;BMP_temperature;BMP_pressure;BME280_temperature;BME280_humidity;BME280_pressure;Samples;Min_cycle;Max_cycle;Signal;HPM_P1;HPM_P2
2024/02/02 05:07:14;;;;;;;0.40;0.40;;;5.20;99.90;;;;;;5107865;23;20286;-70
2024/02/02 05:09:40;;;;;;;0.40;0.40;;;5.20;99.90;;;;;;4956127;29;20177;-70
2024/02/02 05:12:06;;;;;;;0.30;0.30;;;5.10;99.90;;;;;;4955241;29;20181;-68
2024/02/02 05:14:32;;;;;;;0.30;0.30;;;5.10;99.90;;;;;;4959621;29;20169;-70
2024/02/02 05:16:58;;;;;;;0.30;0.30;;;5.10;99.90;;;;;;4960601;28;20212;-71
2024/02/02 05:19:24;;;;;;;0.30;0.30;;;5.10;99.90;;;;;;4958361;28;20161;-71
2024/02/02 05:21:50;;;;;;;0.37;0.37;;;5.20;99.90;;;;;;4957051;29;20171;-72
2024/02/02 05:24:15;;;;;;;1.00;1.00;;;5.20;99.90;;;;;;4957802;28;20226;-72
2024/02/02 05:26:41;;;;;;;0.30;0.30;;;5.20;99.90;;;;;;4955766;28;20762;-72
2024/02/02 05:29:06;;;;;;;0.30;0.30;;;5.20;99.90;;;;;;4956218;29;20200;-72
2024/02/02 05:31:32;;;;;;;0.30;0.30;;;5.20;99.90;;;;;;4956046;29;20203;-71
2024/02/02 05:33:58;;;;;;;0.30;0.30;;;5.20;99.90;;;;;;4955851;29;20205;-71
2024/02/02 05:36:23;;;;;;;0.30;0.30;;;5.20;99.90;;;;;;4957744;29;20288;-71
2024/02/02 05:38:49;;;;;;;0.30;0.30;;;5.20;99.90;;;;;;4967347;29;20196;-72
2024/02/02 05:41:14;;;;;;;0.77;0.77;;;5.30;99.90;;;;;;4970091;29;20195;-71
2024/02/02 05:43:40;;;;;;;0.40;0.40;;;5.30;99.90;;;;;;4973240;29;20595;-72
2024/02/02 05:46:06;;;;;;;0.40;0.40;;;5.30;99.90;;;;;;4971349;28;20195;-71
2024/02/02 05:48:32;;;;;;;0.30;0.30;;;5.30;99.90;;;;;;4963748;29;20192;-72
2024/02/02 05:50:58;;;;;;;0.30;0.30;;;5.40;99.90;;;;;;4960559;29;20913;-72
2024/02/02 05:53:24;;;;;;;0.60;0.50;;;5.40;99.90;;;;;;4957382;28;20168;-71
2024/02/02 05:55:49;;;;;;;0.40;0.40;;;5.40;99.90;;;;;;4956427;28;20197;-72
2024/02/02 05:58:15;;;;;;;0.30;0.30;;;5.40;99.90;;;;;;4954882;29;20260;-71
2024/02/02 06:00:41;;;;;;;0.40;0.40;;;5.40;99.90;;;;;;4954271;28;20190;-72
2024/02/02 06:03:06;;;;;;;0.30;0.30;;;5.50;99.90;;;;;;4955597;29;20195;-71
2024/02/02 06:05:33;;;;;;;0.30;0.30;;;5.40;99.90;;;;;;4955420;28;20280;-71
2024/02/02 06:08:01;;;;;;;0.70;0.70;;;5.50;99.90;;;;;;4956215;28;20179;-71
2024/02/02 06:10:27;;;;;;;0.40;0.40;;;5.40;99.90;;;;;;4956014;28;20539;-72
2024/02/02 06:12:53;;;;;;;0.33;0.33;;;5.50;99.90;;;;;;4956362;29;20176;-71
2024/02/02 06:15:19;;;;;;;0.40;0.40;;;5.50;99.90;;;;;;4954812;28;20196;-71
2024/02/02 06:17:44;;;;;;;0.30;0.30;;;5.50;99.90;;;;;;4955888;29;20271;-71
2024/02/02 06:20:10;;;;;;;0.40;0.40;;;5.50;99.90;;;;;;4955028;29;20179;-71
2024/02/02 06:22:36;;;;;;;0.30;0.30;;;5.40;99.90;;;;;;4955522;29;20283;-72
2024/02/02 06:25:02;;;;;;;0.30;0.30;;;5.40;99.90;;;;;;4954340;28;20503;-71
2024/02/02 06:27:30;;;;;;;0.30;0.30;;;5.40;99.90;;;;;;4953566;29;20173;-71
2024/02/02 06:30:00;;;;;;;0.30;0.30;;;5.40;99.90;;;;;;4954262;29;20507;-71
2024/02/02 06:32:26;;;;;;;0.40;0.40;;;5.40;99.90;;;;;;4955035;29;20254;-72
2024/02/02 06:34:55;;;;;;;0.40;0.40;;;5.40;99.90;;;;;;4954135;29;20349;-70
2024/02/02 06:37:22;;;;;;;0.40;0.40;;;5.40;99.90;;;;;;4954802;28;20189;-69
2024/02/02 06:39:48;;;;;;;0.30;0.30;;;5.40;99.90;;;;;;4954645;29;20190;-70
2024/02/02 06:42:14;;;;;;;0.30;0.30;;;5.40;99.90;;;;;;4955309;29;20189;-68
2024/02/02 06:44:39;;;;;;;0.47;0.47;;;5.50;99.90;;;;;;4954423;29;20426;-70
2024/02/02 06:47:05;;;;;;;0.30;0.30;;;5.50;99.90;;;;;;4954805;28;20282;-68
2024/02/02 06:49:31;;;;;;;0.30;0.30;;;5.50;99.90;;;;;;4954425;29;20180;-69
2024/02/02 06:51:57;;;;;;;0.30;0.30;;;5.50;99.90;;;;;;4954145;29;20177;-70
2024/02/02 06:54:22;;;;;;;0.30;0.30;;;5.50;99.90;;;;;;4954001;29;20506;-68
2024/02/02 06:56:48;;;;;;;0.30;0.30;;;5.60;99.90;;;;;;4954506;28;20211;-68
2024/02/02 06:59:14;;;;;;;0.40;0.40;;;5.50;99.90;;;;;;4954289;29;20181;-69
2024/02/02 07:01:40;;;;;;;0.30;0.30;;;5.50;99.90;;;;;;4953960;29;20364;-69
2024/02/02 07:04:14;;;;;;;0.30;0.30;;;5.50;99.90;;;;;;4954543;29;20199;-68
2024/02/02 07:06:40;;;;;;;0.88;0.88;;;5.50;99.90;;;;;;4953298;28;20574;-68
2024/02/02 07:09:26;;;;;;;0.40;0.40;;;5.50;99.90;;;;;;4951971;29;20198;-67
2024/02/02 07:12:09;;;;;;;0.30;0.30;;;5.50;99.90;;;;;;4951044;29;20201;-67
2024/02/02 07:14:43;;;;;;;0.40;0.40;;;5.60;99.90;;;;;;4954913;29;20164;-68
2024/02/02 07:17:22;;;;;;;0.38;0.38;;;5.70;99.90;;;;;;4955878;28;20186;-69
2024/02/02 07:19:48;;;;;;;0.30;0.30;;;5.70;99.90;;;;;;4955749;29;20381;-67
2024/02/02 07:22:40;;;;;;;0.30;0.30;;;5.70;99.90;;;;;;4956168;29;20272;-67
2024/02/02 07:25:15;;;;;;;0.30;0.30;;;5.70;99.90;;;;;;4957268;28;20171;-67
2024/02/02 07:27:47;;;;;;;0.45;0.45;;;5.70;99.90;;;;;;4957485;29;20180;-67
2024/02/02 07:30:21;;;;;;;0.30;0.30;;;5.70;99.90;;;;;;4957492;29;20259;-68
2024/02/02 07:32:48;;;;;;;0.50;0.50;;;5.60;99.90;;;;;;4957600;29;20182;-66
2024/02/02 07:35:32;;;;;;;0.50;0.50;;;5.60;99.90;;;;;;4956878;28;20181;-69
2024/02/02 07:38:05;;;;;;;0.50;0.50;;;5.60;99.90;;;;;;4957577;29;20227;-68
2024/02/02 07:40:30;;;;;;;0.30;0.30;;;5.60;99.90;;;;;;4957555;29;20594;-70
2024/02/02 07:42:59;;;;;;;0.40;0.40;;;5.70;99.90;;;;;;4957101;29;20274;-67
2024/02/02 07:45:24;;;;;;;0.30;0.30;;;5.70;99.90;;;;;;4956641;28;20275;-69
2024/02/02 07:47:51;;;;;;;0.40;0.40;;;5.70;99.90;;;;;;4957248;29;20591;-66
2024/02/02 07:50:17;;;;;;;0.35;0.35;;;5.90;99.90;;;;;;4957386;29;20186;-67
2024/02/02 07:52:43;;;;;;;0.30;0.30;;;5.90;99.90;;;;;;4957566;29;20173;-68
2024/02/02 07:55:08;;;;;;;0.30;0.30;;;5.90;99.90;;;;;;4957171;28;20423;-68
2024/02/02 07:57:34;;;;;;;0.30;0.30;;;5.90;99.90;;;;;;4957061;29;20256;-71
2024/02/02 07:59:59;;;;;;;0.40;0.40;;;5.90;99.90;;;;;;4956870;29;20223;-66
2024/02/02 08:02:25;;;;;;;0.30;0.30;;;5.90;99.90;;;;;;4955704;29;20298;-68
2024/02/02 08:04:50;;;;;;;0.40;0.40;;;5.90;99.90;;;;;;4956746;29;20188;-67
2024/02/02 08:07:16;;;;;;;0.50;0.50;;;6.00;99.90;;;;;;4956876;28;20238;-68
2024/02/02 08:09:42;;;;;;;0.30;0.30;;;6.00;99.90;;;;;;4957009;29;20223;-68
2024/02/02 08:12:08;;;;;;;0.60;0.60;;;6.10;99.90;;;;;;4956815;29;20252;-67
2024/02/02 08:14:33;;;;;;;0.30;0.30;;;6.20;99.90;;;;;;4955277;29;20207;-66
2024/02/02 08:16:59;;;;;;;0.30;0.30;;;6.20;99.90;;;;;;4956625;28;20431;-69
2024/02/02 08:19:25;;;;;;;0.30;0.30;;;6.20;99.90;;;;;;4955698;29;20562;-67
2024/02/02 08:21:54;;;;;;;0.40;0.40;;;6.30;99.90;;;;;;4956561;29;20182;-68
2024/02/02 08:24:20;;;;;;;0.30;0.30;;;6.30;99.90;;;;;;4955484;28;20268;-67
2024/02/02 08:26:46;;;;;;;0.30;0.30;;;6.30;99.90;;;;;;4956495;28;20271;-67
2024/02/02 08:29:11;;;;;;;0.30;0.30;;;6.40;99.90;;;;;;4956597;29;20412;-69
2024/02/02 08:31:37;;;;;;;0.40;0.40;;;6.40;99.90;;;;;;4957264;29;20173;-68
2024/02/02 08:34:02;;;;;;;0.33;0.33;;;6.50;99.90;;;;;;4956703;29;20175;-68
2024/02/02 08:36:29;;;;;;;0.43;0.43;;;6.50;99.90;;;;;;4954382;28;20236;-70
2024/02/02 08:38:54;;;;;;;0.30;0.30;;;6.60;99.90;;;;;;4956253;29;20165;-68
2024/02/02 08:41:20;;;;;;;0.30;0.30;;;6.60;99.90;;;;;;4956471;29;20644;-67
2024/02/02 08:43:47;;;;;;;0.30;0.20;;;6.70;99.90;;;;;;4956302;29;20750;-66
2024/02/02 08:46:16;;;;;;;0.30;0.30;;;6.80;99.90;;;;;;4955407;28;20547;-68
2024/02/02 08:48:45;;;;;;;0.30;0.30;;;6.90;99.90;;;;;;4956448;29;20214;-69
2024/02/02 08:51:22;;;;;;;0.35;0.35;;;6.80;99.90;;;;;;4956360;29;20173;-67
2024/02/02 08:53:49;;;;;;;0.40;0.40;;;6.80;99.90;;;;;;4956468;29;20184;-67
2024/02/02 08:56:15;;;;;;;0.32;0.32;;;6.90;99.90;;;;;;4955883;28;20200;-67
2024/02/02 08:58:41;;;;;;;0.30;0.30;;;7.00;99.90;;;;;;4956072;29;20177;-68
2024/02/02 09:01:34;;;;;;;0.37;0.37;;;7.10;99.90;;;;;;4956106;29;20176;-67
2024/02/02 09:04:04;;;;;;;0.32;0.32;;;7.20;99.90;;;;;;4956313;29;20842;-67
2024/02/02 09:06:29;;;;;;;0.30;0.30;;;7.30;99.90;;;;;;4955296;28;20682;-65
2024/02/02 09:08:55;;;;;;;0.30;0.30;;;7.30;99.90;;;;;;4955988;29;20193;-67
2024/02/02 09:11:23;;;;;;;0.50;0.50;;;7.30;99.90;;;;;;4955859;29;20630;-65
2024/02/02 09:14:14;;;;;;;0.30;0.30;;;7.40;99.90;;;;;;4955802;29;20903;-68
2024/02/02 09:16:57;;;;;;;0.45;0.45;;;7.50;99.90;;;;;;4954487;28;20212;-65
2024/02/02 09:19:29;;;;;;;0.30;0.30;;;7.60;99.90;;;;;;4952577;29;20717;-66
2024/02/02 09:21:58;;;;;;;0.30;0.30;;;7.60;99.90;;;;;;4953063;29;20185;-65
2024/02/02 09:24:23;;;;;;;0.40;0.40;;;7.70;99.90;;;;;;4953285;29;20176;-65
2024/02/02 09:26:49;;;;;;;0.30;0.30;;;7.80;99.90;;;;;;4954947;28;20196;-68
2024/02/02 09:29:17;;;;;;;0.30;0.30;;;7.90;99.90;;;;;;4955648;29;20173;-67
2024/02/02 09:31:42;;;;;;;0.60;0.60;;;7.90;99.90;;;;;;4955387;29;20180;-66
2024/02/02 09:34:10;;;;;;;0.30;0.30;;;8.00;99.90;;;;;;4955313;29;20172;-68
2024/02/02 09:36:37;;;;;;;0.50;0.50;;;8.00;99.90;;;;;;4955042;28;20332;-66
2024/02/02 09:39:09;;;;;;;0.30;0.30;;;8.20;99.90;;;;;;4955259;29;20172;-66
2024/02/02 09:41:55;;;;;;;0.30;0.30;;;8.20;99.90;;;;;;4954830;29;20181;-66
2024/02/02 09:44:40;;;;;;;0.40;0.40;;;8.30;99.90;;;;;;4953396;29;20179;-67
2024/02/02 09:47:51;;;;;;;0.47;0.47;;;8.40;99.90;;;;;;4954584;28;20228;-66
2024/02/02 09:50:48;;;;;;;0.40;0.40;;;8.50;99.90;;;;;;4919719;29;20190;-67
2024/02/02 09:53:32;;;;;;;0.30;0.30;;;8.60;99.90;;;;;;4936065;29;20166;-67
2024/02/02 09:56:35;;;;;;;0.30;0.30;;;8.70;99.90;;;;;;4935440;29;20219;-67
2024/02/02 09:59:27;;;;;;;1.20;1.10;;;8.80;99.90;;;;;;4935962;29;20180;-69
2024/02/02 10:02:22;;;;;;;0.40;0.40;;;8.90;99.90;;;;;;4950556;29;20183;-66
2024/02/02 10:05:23;;;;;;;0.30;0.30;;;8.90;99.90;;;;;;4954870;28;20556;-68
2024/02/02 10:08:10;;;;;;;0.32;0.32;;;9.00;99.90;;;;;;4954586;29;20187;-67
2024/02/02 10:10:36;;;;;;;0.85;0.85;;;9.10;99.90;;;;;;4955011;28;20540;-69
2024/02/02 10:13:16;;;;;;;0.30;0.30;;;9.20;99.90;;;;;;4954839;29;20174;-67
2024/02/02 10:16:10;;;;;;;0.40;0.40;;;9.20;99.90;;;;;;4954702;29;20221;-71
2024/02/02 10:19:04;;;;;;;0.40;0.40;;;9.20;99.90;;;;;;4954733;28;20186;-69
2024/02/02 10:21:47;;;;;;;0.30;0.30;;;9.20;99.90;;;;;;4955280;29;20183;-68
2024/02/02 10:24:34;;;;;;;0.30;0.30;;;9.20;99.90;;;;;;4954758;28;20580;-69
2024/02/02 10:27:19;;;;;;;0.30;0.20;;;9.20;99.90;;;;;;4954875;29;20190;-67
2024/02/02 10:29:45;;;;;;;0.30;0.30;;;9.30;99.90;;;;;;4955096;29;20165;-67
2024/02/02 10:32:41;;;;;;;0.30;0.30;;;9.40;99.90;;;;;;4954877;29;20213;-69
2024/02/02 10:35:34;;;;;;;0.40;0.40;;;9.50;99.90;;;;;;4955005;29;20582;-70
2024/02/02 10:38:18;;;;;;;0.30;0.30;;;10.00;99.90;;;;;;4953418;29;20498;-67
2024/02/02 10:41:25;;;;;;;0.40;0.40;;;10.50;99.90;;;;;;4954832;28;20830;-68
2024/02/02 10:44:26;;;;;;;0.30;0.30;;;10.80;99.90;;;;;;4954623;28;20891;-70
2024/02/02 10:46:58;;;;;;;0.40;0.40;;;11.30;99.90;;;;;;4945394;28;20452;-68
2024/02/02 10:49:23;;;;;;;0.30;0.30;;;11.80;99.90;;;;;;4957368;28;20402;-67
2024/02/02 10:52:24;;;;;;;0.33;0.33;;;12.30;99.90;;;;;;4958317;28;20426;-68
2024/02/02 10:55:07;;;;;;;0.30;0.30;;;12.80;99.90;;;;;;4956089;29;20194;-68
2024/02/02 10:58:02;;;;;;;0.33;0.33;;;13.00;99.90;;;;;;4958033;28;20772;-69
2024/02/02 11:00:35;;;;;;;0.30;0.20;;;13.00;99.90;;;;;;4958593;28;20365;-71
2024/02/02 11:03:09;;;;;;;0.30;0.30;;;13.00;99.90;;;;;;4958173;28;20541;-67
2024/02/02 11:05:52;;;;;;;0.30;0.30;;;13.00;99.90;;;;;;4957790;28;20400;-70
2024/02/02 11:08:31;;;;;;;0.30;0.30;;;13.20;99.90;;;;;;4957479;28;20489;-68
2024/02/02 11:11:07;;;;;;;0.30;0.30;;;13.50;99.90;;;;;;4957691;28;20474;-68
2024/02/02 11:13:52;;;;;;;0.30;0.23;;;13.70;99.90;;;;;;4958024;28;20403;-68
2024/02/02 11:16:42;;;;;;;0.43;0.43;;;13.90;99.90;;;;;;4942972;29;20621;-65
2024/02/02 11:19:19;;;;;;;0.30;0.20;;;14.00;99.90;;;;;;4958001;28;20784;-68
2024/02/02 11:22:15;;;;;;;0.30;0.30;;;14.10;99.90;;;;;;4957951;28;20492;-67
2024/02/02 11:24:58;;;;;;;0.30;0.30;;;14.00;99.90;;;;;;4957613;28;20387;-65
2024/02/02 11:27:37;;;;;;;3.53;1.13;;;13.90;99.90;;;;;;4955999;29;20414;-66
2024/02/02 11:30:10;;;;;;;0.30;0.20;;;13.70;99.90;;;;;;4956609;29;20569;-66
2024/02/02 11:32:58;;;;;;;0.30;0.20;;;13.50;99.90;;;;;;4957855;28;20406;-66
2024/02/02 11:35:42;;;;;;;0.30;0.30;;;13.40;99.90;;;;;;4957123;28;20420;-67
2024/02/02 11:38:21;;;;;;;0.30;0.30;;;13.20;99.90;;;;;;4957878;28;20412;-64
2024/02/02 11:40:49;;;;;;;0.30;0.20;;;13.10;99.90;;;;;;4957629;28;20408;-66
2024/02/02 11:43:16;;;;;;;0.30;0.30;;;13.10;99.90;;;;;;4941361;28;20454;-64
2024/02/02 11:45:43;;;;;;;0.30;0.20;;;13.10;99.90;;;;;;4937920;29;20756;-67
2024/02/02 11:48:20;;;;;;;0.50;0.50;;;13.10;99.90;;;;;;4938116;29;20897;-61
2024/02/02 11:50:47;;;;;;;0.30;0.30;;;13.10;99.90;;;;;;4938368;29;20405;-65
2024/02/02 11:53:25;;;;;;;0.40;0.40;;;12.90;99.90;;;;;;4938278;29;20773;-66
2024/02/02 11:55:59;;;;;;;0.30;0.30;;;12.90;99.90;;;;;;4941146;29;20566;-64
2024/02/02 11:58:26;;;;;;;0.30;0.30;;;12.90;99.90;;;;;;4956930;28;20498;-69
2024/02/02 12:01:03;;;;;;;0.30;0.30;;;12.90;99.90;;;;;;4957253;28;20412;-66
2024/02/02 12:03:59;;;;;;;0.30;0.30;;;12.90;99.90;;;;;;4956848;28;20918;-69
2024/02/02 12:06:31;;;;;;;0.30;0.20;;;12.90;99.90;;;;;;4955998;28;20945;-67
2024/02/02 12:09:00;;;;;;;0.40;0.40;;;12.90;99.90;;;;;;4956447;29;20421;-68
2024/02/02 12:11:37;;;;;;;0.40;0.40;;;12.90;99.90;;;;;;4957022;28;20748;-64
2024/02/02 12:14:12;;;;;;;0.30;0.30;;;13.00;99.90;;;;;;4956095;29;20469;-66
2024/02/02 12:16:37;;;;;;;0.30;0.30;;;13.10;99.90;;;;;;4956846;28;20428;-65
2024/02/02 12:19:03;;;;;;;0.30;0.30;;;13.10;99.90;;;;;;4957096;28;20435;-65
2024/02/02 12:21:29;;;;;;;0.30;0.30;;;13.10;99.90;;;;;;4957363;28;20260;-66
2024/02/02 12:23:54;;;;;;;0.30;0.30;;;13.10;99.90;;;;;;4957046;28;20229;-64
2024/02/02 12:26:22;;;;;;;0.30;0.30;;;13.10;99.90;;;;;;4955543;28;20272;-65
2024/02/02 12:28:48;;;;;;;0.30;0.30;;;13.10;99.90;;;;;;4956829;29;20185;-66
2024/02/02 12:31:13;;;;;;;0.30;0.30;;;13.10;99.70;;;;;;4956017;29;20783;-66
2024/02/02 12:33:39;;;;;;;0.30;0.30;;;13.10;99.70;;;;;;4956276;29;20173;-66
2024/02/02 12:36:05;;;;;;;0.30;0.30;;;13.00;99.40;;;;;;4954909;28;20197;-66
2024/02/02 12:38:31;;;;;;;0.30;0.30;;;13.00;99.50;;;;;;4956516;29;20189;-68
2024/02/02 12:40:57;;;;;;;0.30;0.30;;;13.10;99.20;;;;;;4956299;28;20819;-68
2024/02/02 12:43:25;;;;;;;0.30;0.30;;;13.00;99.10;;;;;;4956589;28;20235;-68
2024/02/02 12:45:56;;;;;;;0.30;0.30;;;13.00;98.80;;;;;;4954761;29;20291;-67
2024/02/02 12:48:21;;;;;;;0.30;0.30;;;13.00;98.80;;;;;;4956671;28;20404;-67
2024/02/02 12:50:51;;;;;;;0.30;0.30;;;12.90;98.60;;;;;;4955393;28;21172;-70
2024/02/02 12:53:16;;;;;;;0.30;0.20;;;13.00;98.70;;;;;;4955125;28;20180;-67
2024/02/02 12:55:45;;;;;;;0.30;0.30;;;13.00;98.70;;;;;;4955737;28;20470;-65
2024/02/02 12:58:11;;;;;;;0.40;0.30;;;13.00;98.50;;;;;;4956149;29;20412;-68
2024/02/02 13:00:37;;;;;;;0.30;0.20;;;13.00;97.60;;;;;;4956333;29;20452;-67
2024/02/02 13:03:05;;;;;;;0.30;0.30;;;12.90;98.00;;;;;;4956340;29;20822;-67
2024/02/02 13:05:32;;;;;;;0.30;0.30;;;13.00;98.00;;;;;;4954284;28;20447;-69
2024/02/02 13:07:57;;;;;;;0.30;0.27;;;13.00;98.00;;;;;;4955600;29;20434;-64
2024/02/02 13:10:43;;;;;;;0.30;0.30;;;12.90;97.80;;;;;;4955781;28;20412;-66
2024/02/02 13:13:19;;;;;;;0.30;0.20;;;12.90;97.80;;;;;;4956297;28;20176;-65
2024/02/02 13:15:45;;;;;;;0.40;0.40;;;12.90;97.90;;;;;;4954171;29;20444;-67
2024/02/02 13:18:18;;;;;;;0.30;0.30;;;12.90;97.80;;;;;;4955614;28;20410;-66
2024/02/02 13:20:47;;;;;;;0.30;0.30;;;12.80;98.10;;;;;;4936359;29;20403;-67
2024/02/02 13:23:28;;;;;;;0.30;0.30;;;12.90;98.00;;;;;;4955052;28;20452;-66
2024/02/02 13:26:01;;;;;;;0.30;0.30;;;12.80;97.50;;;;;;4955394;28;20488;-64
2024/02/02 13:28:40;;;;;;;0.30;0.20;;;12.80;96.90;;;;;;4955594;28;20949;-69
2024/02/02 13:31:31;;;;;;;0.30;0.30;;;12.80;97.10;;;;;;4955801;28;20459;-67
2024/02/02 13:34:01;;;;;;;0.30;0.30;;;12.90;97.30;;;;;;4955712;28;20411;-66
2024/02/02 13:36:32;;;;;;;0.30;0.20;;;12.90;97.60;;;;;;4954800;28;20811;-67
2024/02/02 13:39:02;;;;;;;0.30;0.20;;;13.00;98.20;;;;;;4955380;28;20435;-67
2024/02/02 13:41:33;;;;;;;0.30;0.20;;;13.00;97.90;;;;;;4955422;29;20477;-68
2024/02/02 13:44:07;;;;;;;0.30;0.30;;;13.00;97.60;;;;;;4955388;29;20471;-66
2024/02/02 13:46:44;;;;;;;0.30;0.20;;;12.90;97.80;;;;;;4955215;28;20436;-65
2024/02/02 13:49:23;;;;;;;0.30;0.30;;;13.00;97.80;;;;;;4955383;29;20439;-69
2024/02/02 13:51:49;;;;;;;0.30;0.30;;;12.90;97.40;;;;;;4954924;29;20432;-68
2024/02/02 13:54:18;;;;;;;0.30;0.30;;;12.90;97.50;;;;;;4955103;28;20757;-65
2024/02/02 13:56:47;;;;;;;0.30;0.20;;;12.90;97.70;;;;;;4955240;28;20204;-66
2024/02/02 13:59:17;;;;;;;0.30;0.20;;;12.90;97.70;;;;;;4955142;28;20499;-63
2024/02/02 14:01:44;;;;;;;0.30;0.20;;;12.80;97.30;;;;;;4953987;29;20493;-66
2024/02/02 14:04:11;;;;;;;0.30;0.30;;;12.70;97.40;;;;;;4955319;28;20467;-67
2024/02/02 14:06:37;;;;;;;0.30;0.30;;;12.70;97.60;;;;;;4954165;28;20459;-68
2024/02/02 14:09:04;;;;;;;0.50;0.50;;;12.60;97.60;;;;;;4954677;28;20466;-66
2024/02/02 14:11:30;;;;;;;0.30;0.30;;;12.60;97.60;;;;;;4954575;28;20419;-67
2024/02/02 14:13:59;;;;;;;0.30;0.30;;;12.60;97.30;;;;;;4954584;28;20786;-66
2024/02/02 14:16:26;;;;;;;2.20;0.73;;;12.50;97.30;;;;;;4953155;28;20802;-67
2024/02/02 14:19:08;;;;;;;0.30;0.30;;;12.50;97.20;;;;;;4953140;28;20503;-67
2024/02/02 14:21:36;;;;;;;0.40;0.40;;;12.50;96.90;;;;;;4952954;28;20802;-66
2024/02/02 14:24:11;;;;;;;0.30;0.20;;;12.50;96.90;;;;;;4951953;28;20471;-67
2024/02/02 14:26:51;;;;;;;0.30;0.30;;;12.50;96.40;;;;;;4952936;28;20470;-68
2024/02/02 14:29:17;;;;;;;0.30;0.30;;;12.50;96.70;;;;;;4953292;28;20419;-66
2024/02/02 14:31:43;;;;;;;1.60;1.50;;;12.40;96.40;;;;;;4954476;28;20786;-67
2024/02/02 14:34:09;;;;;;;0.40;0.40;;;12.40;96.30;;;;;;4954841;28;20434;-66
2024/02/02 14:36:35;;;;;;;0.30;0.30;;;12.40;96.00;;;;;;4954533;28;20938;-68
2024/02/02 14:39:01;;;;;;;0.30;0.30;;;12.40;96.00;;;;;;4958660;28;20432;-67
2024/02/02 14:41:27;;;;;;;0.30;0.30;;;12.40;95.90;;;;;;4955911;28;20415;-68
2024/02/02 14:43:53;;;;;;;0.30;0.30;;;12.30;95.70;;;;;;4955221;28;20435;-68
2024/02/02 14:46:20;;;;;;;0.37;0.37;;;12.30;96.00;;;;;;4954556;28;20195;-66
2024/02/02 14:48:50;;;;;;;0.30;0.30;;;12.40;96.10;;;;;;4953030;28;20190;-68
2024/02/02 14:51:15;;;;;;;0.30;0.30;;;12.40;96.10;;;;;;4954752;28;20412;-67
2024/02/02 14:53:41;;;;;;;0.30;0.30;;;12.40;95.60;;;;;;4954718;28;20416;-69
2024/02/02 14:56:07;;;;;;;0.37;0.37;;;12.30;95.80;;;;;;4954356;28;20199;-66
2024/02/02 14:58:35;;;;;;;0.30;0.20;;;12.20;95.80;;;;;;4955011;28;20180;-69
2024/02/02 15:01:03;;;;;;;0.30;0.30;;;12.30;95.50;;;;;;4954565;28;20418;-65
2024/02/02 15:03:29;;;;;;;0.40;0.40;;;12.20;95.00;;;;;;4954344;28;20585;-68
2024/02/02 15:05:55;;;;;;;0.30;0.30;;;12.20;95.40;;;;;;4953992;28;20472;-66
2024/02/02 15:08:21;;;;;;;0.30;0.30;;;12.20;95.10;;;;;;4953067;28;20726;-68
2024/02/02 15:10:48;;;;;;;0.30;0.30;;;12.10;94.80;;;;;;4954739;28;20563;-65
2024/02/02 15:13:15;;;;;;;0.30;0.30;;;12.10;95.20;;;;;;4954468;28;20502;-66
2024/02/02 15:15:41;;;;;;;0.30;0.30;;;12.10;94.90;;;;;;4953969;28;20437;-67
2024/02/02 15:18:07;;;;;;;0.30;0.30;;;12.00;94.80;;;;;;4954461;28;20426;-67
2024/02/02 15:20:33;;;;;;;0.30;0.30;;;12.00;95.30;;;;;;4954354;28;20190;-67
2024/02/02 15:22:59;;;;;;;0.30;0.30;;;11.90;95.70;;;;;;4954249;28;20756;-67
2024/02/02 15:25:24;;;;;;;0.30;0.30;;;11.90;96.70;;;;;;4952642;29;20458;-68
2024/02/02 15:27:50;;;;;;;0.30;0.30;;;11.80;97.60;;;;;;4954723;28;20629;-64
2024/02/02 15:30:16;;;;;;;0.30;0.30;;;11.70;98.70;;;;;;4954335;28;20278;-67
2024/02/02 15:32:44;;;;;;;0.40;0.40;;;11.60;99.30;;;;;;4954133;28;20627;-64
2024/02/02 15:35:13;;;;;;;0.30;0.30;;;11.50;99.60;;;;;;4956377;28;20421;-67
2024/02/02 15:37:40;;;;;;;0.30;0.30;;;11.40;99.90;;;;;;4957807;28;20418;-65
2024/02/02 15:40:07;;;;;;;0.30;0.30;;;11.30;99.90;;;;;;4957553;28;20425;-65
2024/02/02 15:42:33;;;;;;;0.30;0.30;;;11.20;99.90;;;;;;4957610;28;20453;-66
2024/02/02 15:45:03;;;;;;;0.30;0.30;;;11.10;99.90;;;;;;4957135;28;20491;-68
2024/02/02 15:47:30;;;;;;;0.30;0.30;;;11.00;99.90;;;;;;4957347;28;20173;-65
2024/02/02 15:49:57;;;;;;;0.30;0.30;;;10.90;99.90;;;;;;4957496;28;20421;-66
2024/02/02 15:52:22;;;;;;;0.30;0.30;;;10.80;99.90;;;;;;4957594;28;20415;-67
2024/02/02 15:54:48;;;;;;;0.30;0.30;;;10.80;99.90;;;;;;4957415;28;20532;-66
2024/02/02 15:57:14;;;;;;;0.40;0.40;;;10.70;99.90;;;;;;4957487;28;20669;-68
2024/02/02 15:59:41;;;;;;;0.30;0.30;;;10.60;99.90;;;;;;4957486;28;20177;-65
2024/02/02 16:02:08;;;;;;;0.30;0.30;;;10.50;99.90;;;;;;4957073;28;20352;-67
2024/02/02 16:04:34;;;;;;;0.30;0.30;;;10.50;99.90;;;;;;4956328;28;20533;-65
2024/02/02 16:07:05;;;;;;;0.30;0.30;;;10.40;99.90;;;;;;4956580;28;20204;-67
2024/02/02 16:09:39;;;;;;;0.30;0.30;;;10.30;99.90;;;;;;4956732;29;20176;-65
2024/02/02 16:12:12;;;;;;;0.30;0.30;;;10.30;99.90;;;;;;4956792;29;20698;-68
2024/02/02 16:14:39;;;;;;;0.30;0.30;;;10.20;99.90;;;;;;4956614;29;20193;-67
2024/02/02 16:17:08;;;;;;;0.30;0.30;;;10.10;99.90;;;;;;4959061;28;20233;-67
2024/02/02 16:19:34;;;;;;;0.30;0.30;;;10.10;99.90;;;;;;4959025;29;20271;-65
2024/02/02 16:22:00;;;;;;;0.30;0.30;;;10.10;99.90;;;;;;4956833;29;20186;-66
2024/02/02 16:24:26;;;;;;;0.30;0.30;;;10.00;99.90;;;;;;4957687;29;20650;-67
2024/02/02 16:26:51;;;;;;;0.30;0.30;;;10.00;99.90;;;;;;4955542;28;20255;-67
2024/02/02 16:29:18;;;;;;;0.30;0.30;;;10.00;99.90;;;;;;4956168;29;20241;-64
2024/02/02 16:31:45;;;;;;;0.30;0.30;;;9.90;99.90;;;;;;4956833;29;20492;-67
2024/02/02 16:34:11;;;;;;;0.30;0.30;;;9.90;99.90;;;;;;4960028;29;20665;-67
2024/02/02 16:36:44;;;;;;;0.30;0.20;;;9.90;99.90;;;;;;4960204;28;20206;-68
2024/02/02 16:39:11;;;;;;;0.38;0.38;;;9.80;99.90;;;;;;4960344;29;20178;-65
2024/02/02 16:41:38;;;;;;;0.32;0.32;;;9.70;99.90;;;;;;4957546;29;20181;-67
2024/02/02 16:44:06;;;;;;;0.30;0.30;;;9.70;99.90;;;;;;4956738;29;20551;-68
2024/02/02 16:46:33;;;;;;;0.30;0.30;;;9.60;99.90;;;;;;4955759;28;20200;-63
2024/02/02 16:48:58;;;;;;;0.30;0.30;;;9.60;99.90;;;;;;4956527;29;20192;-66
2024/02/02 16:51:24;;;;;;;0.30;0.30;;;9.60;99.90;;;;;;4959907;29;20640;-68
2024/02/02 16:53:49;;;;;;;0.30;0.30;;;9.60;99.90;;;;;;4959882;29;20648;-68
2024/02/02 16:56:16;;;;;;;0.30;0.30;;;9.60;99.90;;;;;;4959487;28;20208;-67
2024/02/02 16:58:43;;;;;;;0.30;0.30;;;9.50;99.90;;;;;;4960612;29;20176;-68
2024/02/02 17:01:09;;;;;;;0.30;0.30;;;9.50;99.90;;;;;;4959744;28;20179;-69
2024/02/02 17:03:41;;;;;;;0.30;0.30;;;9.40;99.90;;;;;;4956183;28;20260;-68
2024/02/02 17:06:08;;;;;;;0.32;0.32;;;9.40;99.90;;;;;;4956618;28;20201;-69
2024/02/02 17:08:34;;;;;;;0.30;0.30;;;9.40;99.90;;;;;;4956271;28;20188;-68
2024/02/02 17:11:03;;;;;;;0.30;0.30;;;9.30;99.90;;;;;;4956929;29;20169;-67
2024/02/02 17:13:29;;;;;;;0.40;0.40;;;9.30;99.90;;;;;;4955483;29;20670;-68
2024/02/02 17:15:55;;;;;;;0.30;0.28;;;9.30;99.90;;;;;;4956034;28;20204;-66
2024/02/02 17:18:20;;;;;;;0.30;0.30;;;9.30;99.90;;;;;;4956002;29;20184;-68
2024/02/02 17:20:46;;;;;;;0.40;0.40;;;9.20;99.90;;;;;;4956085;29;20248;-68
2024/02/02 17:23:11;;;;;;;0.30;0.30;;;9.20;99.90;;;;;;4955708;29;20205;-67
2024/02/02 17:25:37;;;;;;;0.40;0.40;;;9.10;99.90;;;;;;4955529;28;20284;-68
2024/02/02 17:28:03;;;;;;;0.40;0.40;;;9.10;99.90;;;;;;4955799;29;20180;-65
2024/02/02 17:30:28;;;;;;;0.33;0.33;;;9.00;99.90;;;;;;4955535;29;20169;-67
2024/02/02 17:32:55;;;;;;;0.33;0.33;;;9.00;99.90;;;;;;4955036;29;20651;-66
2024/02/02 17:35:21;;;;;;;0.30;0.30;;;8.90;99.90;;;;;;4955290;28;20565;-67
2024/02/02 17:37:46;;;;;;;0.30;0.30;;;8.90;99.90;;;;;;4953980;29;20240;-68
2024/02/02 17:40:13;;;;;;;0.30;0.30;;;8.90;99.90;;;;;;4955690;29;20227;-65
2024/02/02 17:42:40;;;;;;;0.30;0.30;;;8.90;99.90;;;;;;4955434;29;20203;-66
2024/02/02 17:45:06;;;;;;;0.30;0.30;;;8.90;99.90;;;;;;4955015;28;20165;-67
2024/02/02 17:47:32;;;;;;;0.30;0.30;;;8.90;99.90;;;;;;4942717;29;20173;-66
2024/02/02 17:49:57;;;;;;;0.30;0.30;;;8.90;99.90;;;;;;4955030;28;20547;-69
2024/02/02 17:52:23;;;;;;;0.30;0.30;;;8.80;99.90;;;;;;4955224;29;20169;-68
2024/02/02 17:54:49;;;;;;;0.40;0.40;;;8.80;99.90;;;;;;4953689;29;20184;-70
2024/02/02 17:57:14;;;;;;;0.30;0.30;;;8.80;99.90;;;;;;4955279;28;20251;-69
2024/02/02 17:59:40;;;;;;;0.40;0.40;;;8.80;99.90;;;;;;4955249;29;20177;-70
2024/02/02 18:02:08;;;;;;;0.40;0.40;;;8.80;99.90;;;;;;4954601;29;20183;-67
2024/02/02 18:04:34;;;;;;;0.30;0.30;;;8.80;99.90;;;;;;4954809;28;20181;-70
2024/02/02 18:06:59;;;;;;;0.30;0.30;;;8.80;99.90;;;;;;4954887;28;20211;-66
2024/02/02 18:09:25;;;;;;;0.30;0.30;;;8.80;99.90;;;;;;4954481;28;20181;-69
2024/02/02 18:11:51;;;;;;;0.30;0.30;;;8.80;99.90;;;;;;4954874;29;20201;-67
2024/02/02 18:14:22;;;;;;;0.30;0.30;;;8.70;99.90;;;;;;4954804;29;20169;-69
2024/02/02 18:16:48;;;;;;;0.32;0.32;;;8.70;99.90;;;;;;4953658;28;20252;-71